Data for 12/27/2007

Time Sea-Level Adjusted Pressure Absolute Pressure Temperature Relative Humidity Dew Point   
(mb) (inHg) (mb) (inHg) (C) (F) (%) (C) (F)
00:05 1012 29.88 841 24.83 -6.7 20 66 -12 10.3
00:10 1012 29.88 842 24.86 -6.5 20.3 65 -12.1 10.3
00:15 1012 29.88 842 24.86 -6.4 20.5 66 -11.8 10.8
00:20 1012 29.88 842 24.86 -6.3 20.6 66 -11.6 11.1
00:25 1012 29.88 842 24.86 -6.2 20.8 67 -11.4 11.6
00:30 1012 29.88 842 24.86 -6.3 20.7 69 -11.1 12
00:35 1012 29.88 842 24.86 -6.3 20.6 71 -10.8 12.6
00:40 1012 29.88 842 24.86 -6.4 20.4 72 -10.7 12.8
00:45 1013 29.91 842 24.86 -6.5 20.3 74 -10.4 13.2
00:50 1013 29.91 842 24.86 -6.6 20.2 75 -10.3 13.5
00:55 1013 29.91 842 24.86 -6.7 20 76 -10.1 13.7
01:00 1013 29.91 842 24.86 -6.7 20 77 -10.1 13.9
01:05 1013 29.91 842 24.86 -6.8 19.8 80 -9.6 14.6
01:10 1013 29.91 842 24.86 -6.9 19.6 82 -9.5 14.9
01:15 1013 29.91 842 24.86 -7 19.4 85 -9.1 15.7
01:20 1013 29.91 842 24.86 -7.1 19.3 87 -8.9 15.9
01:25 1013 29.91 842 24.86 -7.2 19 87 -9 15.7
01:30 1013 29.91 842 24.86 -7.4 18.6 88 -9 15.7
01:35 1013 29.91 842 24.86 -7.5 18.6 90 -8.9 16
01:40 1013 29.91 842 24.86 -7.5 18.6 90 -8.8 16.1
01:45 1013 29.91 842 24.86 -7.4 18.7 89 -8.9 16
01:50 1013 29.91 842 24.86 -7.3 18.8 88 -9 15.9
01:55 1013 29.91 842 24.86 -7.5 18.5 88 -9.2 15.5
02:00 1013 29.91 842 24.86 -7.6 18.3 88 -9.2 15.4
02:05 1013 29.91 842 24.86 -7.6 18.4 89 -9.1 15.6
02:10 1013 29.91 842 24.86 -7.6 18.4 90 -8.9 15.9
02:15 1013 29.91 842 24.86 -7.5 18.5 90 -8.9 16.1
02:20 1013 29.91 842 24.86 -7.5 18.6 89 -8.9 15.9
02:25 1013 29.91 842 24.86 -7.6 18.4 88 -9.3 15.3
02:30 1013 29.91 842 24.86 -7.6 18.3 85 -9.7 14.6
02:35 1013 29.91 842 24.86 -7.6 18.3 84 -9.8 14.3
02:40 1013 29.91 842 24.86 -7.6 18.4 83 -10 14.1
02:45 1013 29.91 842 24.86 -7.5 18.6 81 -10.1 13.8
02:50 1013 29.91 842 24.86 -7.4 18.7 80 -10.3 13.5
02:55 1013 29.91 842 24.86 -7.3 18.8 79 -10.3 13.4
03:00 1013 29.91 842 24.86 -7.2 19 78 -10.4 13.4
03:05 1013 29.91 842 24.86 -7.1 19.2 77 -10.5 13.1
03:10 1013 29.91 842 24.86 -7 19.4 76 -10.6 12.9
03:15 1013 29.91 842 24.86 -7 19.4 75 -10.7 12.8
03:20 1013 29.91 842 24.86 -7 19.4 74 -10.9 12.5
03:25 1013 29.91 842 24.86 -7 19.4 73 -11.2 11.9
03:30 1013 29.91 842 24.86 -7.1 19.2 73 -11.2 11.8
03:35 1013 29.91 842 24.86 -7.4 18.8 73 -11.4 11.4
03:40 1013 29.91 842 24.86 -7.4 18.6 72 -11.6 11.1
03:45 1013 29.91 842 24.86 -7.5 18.5 72 -11.6 11
03:50 1013 29.91 842 24.86 -7.4 18.7 72 -11.7 11
03:55 1013 29.91 842 24.86 -7.2 19 73 -11.3 11.7
04:00 1013 29.91 843 24.89 -7.2 19 82 -9.8 14.3
04:05 1013 29.91 843 24.89 -7.5 18.5 83 -9.9 14.3
04:10 1013 29.91 843 24.89 -7.5 18.4 82 -10.1 13.8
04:15 1013 29.91 842 24.86 -7.4 18.7 75 -11.1 12
04:20 1013 29.91 842 24.86 -7 19.4 70 -11.6 11.1
04:25 1013 29.91 842 24.86 -6.6 20 69 -11.4 11.5
04:30 1013 29.91 842 24.86 -6.6 20.2 68 -11.5 11.3
04:35 1013 29.91 842 24.86 -6.6 20.1 67 -11.8 10.8
04:40 1013 29.91 842 24.86 -6.7 20 68 -11.7 11
04:45 1013 29.91 842 24.86 -6.7 19.9 68 -11.6 11.1
04:50 1013 29.91 842 24.86 -6.7 19.9 70 -11.4 11.5
04:55 1013 29.91 842 24.86 -6.7 19.9 70 -11.3 11.7
05:00 1013 29.91 842 24.86 -6.8 19.8 71 -11.3 11.7
05:05 1013 29.91 842 24.86 -6.9 19.5 70 -11.5 11.2
05:10 1013 29.91 842 24.86 -7 19.4 70 -11.6 11.1
05:15 1013 29.91 842 24.86 -6.9 19.6 70 -11.5 11.4
05:20 1013 29.91 842 24.86 -6.9 19.5 71 -11.4 11.4
05:25 1013 29.91 842 24.86 -7 19.5 71 -11.3 11.6
05:30 1013 29.91 842 24.86 -7 19.4 71 -11.5 11.3
05:35 1013 29.91 843 24.89 -7 19.5 71 -11.4 11.4
05:40 1013 29.91 843 24.89 -6.9 19.5 71 -11.4 11.5
05:45 1013 29.91 843 24.89 -6.9 19.6 70 -11.4 11.4
05:50 1013 29.91 843 24.89 -6.9 19.5 69 -11.7 10.9
05:55 1013 29.91 843 24.89 -6.9 19.6 69 -11.7 11
06:00 1013 29.91 843 24.89 -6.9 19.6 68 -11.9 10.6
06:05 1013 29.91 843 24.89 -6.9 19.5 68 -11.9 10.5
06:10 1014 29.94 843 24.89 -7 19.5 69 -11.7 11
06:15 1014 29.94 843 24.89 -7.1 19.3 70 -11.7 10.9
06:20 1014 29.94 843 24.89 -7.2 19.1 72 -11.5 11.4
06:25 1014 29.94 843 24.89 -7.2 19 73 -11.3 11.7
06:30 1014 29.94 843 24.89 -7.2 19 73 -11.4 11.6
06:35 1014 29.94 843 24.89 -7.2 19.1 70 -11.7 10.9
06:40 1014 29.94 843 24.89 -7.1 19.1 69 -11.9 10.5
06:45 1014 29.94 843 24.89 -7.1 19.2 69 -11.8 10.8
06:50 1014 29.94 843 24.89 -7.1 19.2 70 -11.7 10.9
06:55 1014 29.94 843 24.89 -7.1 19.2 71 -11.6 11.2
07:00 1014 29.94 843 24.89 -7.2 19.1 70 -11.8 10.7
07:05 1014 29.94 843 24.89 -7.3 18.8 73 -11.4 11.5
07:10 1014 29.94 843 24.89 -7.4 18.8 72 -11.6 11.1
07:15 1014 29.94 843 24.89 -7.4 18.8 74 -11.2 11.8
07:20 1014 29.94 843 24.89 -7.4 18.7 73 -11.4 11.4
07:25 1014 29.94 843 24.89 -7.4 18.8 70 -11.9 10.6
07:30 1014 29.94 843 24.89 -7.3 18.9 72 -11.5 11.3
07:35 1014 29.94 843 24.89 -7.3 18.8 70 -11.9 10.5
07:40 1014 29.94 843 24.89 -7.4 18.7 72 -11.7 11
07:45 1014 29.94 843 24.89 -7.4 18.6 70 -11.9 10.5
07:50 1014 29.94 843 24.89 -7.4 18.7 69 -12.1 10.1
07:55 1014 29.94 843 24.89 -7.2 19 69 -11.9 10.6
08:00 1014 29.94 843 24.89 -7.3 18.9 71 -11.7 10.9
08:05 1014 29.94 843 24.89 -7.4 18.7 71 -11.8 10.8
08:10 1014 29.94 843 24.89 -7.4 18.6 75 -11.2 11.8
08:15 1014 29.94 843 24.89 -7.6 18.4 72 -11.7 10.9
08:20 1014 29.94 843 24.89 -7.6 18.3 74 -11.6 11.2
08:25 1014 29.94 843 24.89 -7.7 18.2 72 -11.9 10.6
08:30 1014 29.94 843 24.89 -7.7 18.2 70 -12.2 10.1
08:35 1014 29.94 843 24.89 -7.6 18.3 69 -12.4 9.7
08:40 1014 29.94 843 24.89 -7.5 18.5 70 -12.2 10.1
08:45 1014 29.94 843 24.89 -7.5 18.6 71 -11.9 10.6
08:50 1014 29.94 843 24.89 -7.3 18.9 71 -11.7 10.9
08:55 1014 29.94 843 24.89 -7.2 19 70 -11.8 10.8
09:00 1014 29.94 843 24.89 -7.2 19 71 -11.7 11
09:05 1014 29.94 843 24.89 -7.1 19.3 72 -11.3 11.7
09:10 1014 29.94 843 24.89 -7 19.3 64 -12.7 9.1
09:15 1014 29.94 843 24.89 -6.8 19.8 60 -13.4 7.9
09:20 1014 29.94 843 24.89 -6.7 20 59 -13.5 7.8
09:25 1014 29.94 843 24.89 -6.7 20 57 -13.8 7.2
09:30 1014 29.94 843 24.89 -6.7 19.9 59 -13.5 7.6
09:35 1014 29.94 843 24.89 -6.6 20.1 56 -14.1 6.6
09:40 1014 29.94 843 24.89 -6.7 20 56 -14.1 6.7
09:45 1014 29.94 843 24.89 -6.7 19.9 57 -13.8 7.1
09:50 1014 29.94 843 24.89 -6.5 20.4 56 -13.9 6.9
09:55 1014 29.94 843 24.89 -6.4 20.5 55 -14 6.7
10:00 1014 29.94 843 24.89 -6.4 20.4 56 -13.8 7.1
10:05 1014 29.94 843 24.89 -6.4 20.4 55 -14.1 6.7
10:10 1014 29.94 843 24.89 -6.7 19.9 58 -13.6 7.5
10:15 1014 29.94 844 24.92 -6.8 19.8 58 -13.7 7.4
10:20 1014 29.94 844 24.92 -6.7 19.9 56 -14 6.7
10:25 1014 29.94 844 24.92 -6.8 19.7 57 -14 6.7
10:30 1014 29.94 844 24.92 -6.9 19.7 58 -13.8 7.2
10:35 1014 29.94 844 24.92 -6.8 19.8 57 -13.9 7
10:40 1014 29.94 844 24.92 -7 19.4 58 -13.9 7
10:45 1014 29.94 844 24.92 -7 19.4 59 -13.8 7.1
10:50 1014 29.94 844 24.92 -6.8 19.7 57 -14 6.8
10:55 1014 29.94 843 24.89 -6.8 19.7 58 -13.7 7.3
11:00 1014 29.94 843 24.89 -6.6 20.1 58 -13.5 7.7
11:05 1014 29.94 843 24.89 -6.3 20.7 56 -13.6 7.5
11:10 1014 29.94 843 24.89 -6.3 20.7 56 -13.8 7.2
11:15 1014 29.94 843 24.89 -6.7 19.9 57 -13.9 7
11:20 1014 29.94 843 24.89 -6.9 19.7 58 -13.8 7.1
11:25 1014 29.94 843 24.89 -6.8 19.7 57 -13.9 6.9
11:30 1014 29.94 843 24.89 -6.7 19.9 55 -14.2 6.4
11:35 1014 29.94 843 24.89 -6.3 20.7 53 -14.4 6.1
11:40 1014 29.94 843 24.89 -6.4 20.5 56 -13.7 7.3
11:45 1014 29.94 843 24.89 -6.5 20.4 56 -13.8 7.2
11:50 1014 29.94 843 24.89 -6.2 20.9 54 -14.1 6.6
11:55 1014 29.94 843 24.89 -5.9 21.3 55 -13.7 7.3
12:00 1014 29.94 843 24.89 -5.6 21.8 54 -13.5 7.7
12:05 1014 29.94 843 24.89 -5.4 22.2 52 -13.9 7
12:10 1014 29.94 843 24.89 -5.5 22.1 54 -13.4 7.9
12:15 1014 29.94 843 24.89 -5.4 22.2 53 -13.6 7.6
12:20 1013 29.91 843 24.89 -5.5 22.2 52 -13.8 7.1
12:25 1013 29.91 843 24.89 -5.7 21.8 54 -13.6 7.5
12:30 1013 29.91 843 24.89 -5.6 21.9 54 -13.5 7.7
12:35 1013 29.91 843 24.89 -5.4 22.2 53 -13.6 7.6
12:40 1013 29.91 843 24.89 -5.4 22.2 53 -13.5 7.6
12:45 1013 29.91 843 24.89 -5.5 22.1 52 -13.8 7.1
12:50 1013 29.91 843 24.89 -5.4 22.2 52 -13.8 7.2
12:55 1013 29.91 843 24.89 -5.3 22.5 53 -13.5 7.6
13:00 1013 29.91 842 24.86 -5.2 22.6 51 -13.8 7.2
13:05 1013 29.91 842 24.86 -4.9 23.2 51 -13.5 7.7
13:10 1013 29.91 842 24.86 -4.8 23.3 51 -13.4 7.9
13:15 1013 29.91 842 24.86 -4.6 23.7 52 -13 8.5
13:20 1013 29.91 842 24.86 -4.5 24 50 -13.5 7.8
13:25 1013 29.91 842 24.86 -4.3 24.3 49 -13.4 7.9
13:30 1013 29.91 842 24.86 -3.9 25.1 47 -13.6 7.5
13:35 1013 29.91 842 24.86 -3.7 25.3 47 -13.4 7.9
13:40 1013 29.91 842 24.86 -2.8 26.9 44 -13.5 7.6
13:45 1013 29.91 842 24.86 -2.3 27.8 41 -13.9 7
13:50 1013 29.91 842 24.86 -1.8 28.8 41 -13.3 8
13:55 1013 29.91 842 24.86 -1.4 29.5 40 -13.4 7.8
14:00 1013 29.91 842 24.86 -2.3 27.8 45 -12.8 8.9
14:05 1013 29.91 842 24.86 -3.5 25.7 47 -13.2 8.2
14:10 1013 29.91 842 24.86 -3.9 24.9 49 -13.3 8.1
14:15 1013 29.91 842 24.86 -4.3 24.3 48 -13.7 7.3
14:20 1013 29.91 842 24.86 -4.2 24.5 48 -13.6 7.5
14:25 1013 29.91 842 24.86 -4.7 23.6 49 -13.8 7.1
14:30 1013 29.91 842 24.86 -4.6 23.7 49 -13.8 7.2
14:35 1013 29.91 842 24.86 -4.7 23.6 51 -13.4 7.9
14:40 1013 29.91 842 24.86 -4.6 23.7 49 -13.8 7.2
14:45 1013 29.91 842 24.86 -4.4 24 49 -13.5 7.7
14:50 1013 29.91 842 24.86 -4.1 24.5 50 -13.1 8.4
14:55 1013 29.91 842 24.86 -3.9 24.9 50 -12.8 8.9
15:00 1013 29.91 842 24.86 -4 24.9 50 -13 8.7
15:05 1013 29.91 842 24.86 -4.1 24.7 49 -13.3 8.1
15:10 1013 29.91 842 24.86 -4 24.8 49 -13.2 8.3
15:15 1013 29.91 842 24.86 -4 24.8 48 -13.6 7.6
15:20 1013 29.91 842 24.86 -4.1 24.6 49 -13.3 8
15:25 1013 29.91 842 24.86 -4.2 24.5 50 -13.2 8.2
15:30 1013 29.91 842 24.86 -4.3 24.2 48 -13.8 7.1
15:35 1013 29.91 842 24.86 -4.8 23.3 50 -13.8 7.1
15:40 1013 29.91 842 24.86 -4.9 23.1 48 -14.2 6.4
15:45 1013 29.91 842 24.86 -5.2 22.6 49 -14.4 6
15:50 1013 29.91 842 24.86 -5.3 22.5 50 -14.1 6.7
15:55 1013 29.91 842 24.86 -5.2 22.6 50 -14.1 6.7
16:00 1013 29.91 842 24.86 -5.3 22.4 50 -14.3 6.3
16:05 1013 29.91 842 24.86 -5.3 22.5 51 -13.9 6.9
16:10 1013 29.91 842 24.86 -5.4 22.3 51 -14 6.7
16:15 1013 29.91 842 24.86 -5.4 22.3 50 -14.3 6.2
16:20 1013 29.91 842 24.86 -5.3 22.4 50 -14.2 6.5
16:25 1013 29.91 842 24.86 -5.3 22.5 49 -14.3 6.2
16:30 1013 29.91 842 24.86 -5.3 22.4 49 -14.6 5.8
16:35 1013 29.91 842 24.86 -5.5 22.1 49 -14.6 5.7
16:40 1013 29.91 842 24.86 -5.6 22 49 -14.8 5.4
16:45 1013 29.91 842 24.86 -5.6 21.9 49 -14.9 5.3
16:50 1013 29.91 842 24.86 -5.7 21.8 47 -15.3 4.4
16:55 1013 29.91 842 24.86 -5.7 21.8 48 -15.1 4.9
17:00 1013 29.91 842 24.86 -5.7 21.7 48 -15 5
17:05 1013 29.91 842 24.86 -5.8 21.6 50 -14.6 5.7
17:10 1013 29.91 842 24.86 -5.9 21.4 51 -14.6 5.8
17:15 1013 29.91 842 24.86 -5.9 21.3 50 -14.8 5.4
17:20 1013 29.91 842 24.86 -5.9 21.4 50 -14.7 5.6
17:25 1013 29.91 842 24.86 -5.9 21.4 51 -14.5 6
17:30 1013 29.91 842 24.86 -5.9 21.3 52 -14.3 6.3
17:35 1013 29.91 842 24.86 -6.1 21.1 53 -14.1 6.6
17:40 1013 29.91 842 24.86 -6.2 20.8 53 -14.2 6.4
17:45 1013 29.91 842 24.86 -6.4 20.5 54 -14.3 6.3
17:50 1013 29.91 842 24.86 -6.4 20.4 54 -14.3 6.3
17:55 1013 29.91 842 24.86 -6.5 20.2 54 -14.3 6.3
18:00 1013 29.91 842 24.86 -6.6 20.1 54 -14.5 5.9
18:05 1013 29.91 842 24.86 -6.7 20 54 -14.6 5.8
18:10 1013 29.91 842 24.86 -6.8 19.8 53 -14.9 5.2
18:15 1013 29.91 842 24.86 -6.8 19.7 52 -15.2 4.6
18:20 1013 29.91 842 24.86 -6.9 19.6 49 -15.8 3.5
18:25 1013 29.91 842 24.86 -6.9 19.7 47 -16.4 2.4
18:30 1013 29.91 842 24.86 -6.8 19.8 47 -16.4 2.5
18:35 1013 29.91 842 24.86 -6.9 19.6 50 -15.8 3.6
18:40 1013 29.91 842 24.86 -7 19.4 48 -16.1 2.9
18:45 1013 29.91 842 24.86 -7 19.5 49 -15.9 3.3
18:50 1012 29.88 842 24.86 -7 19.4 50 -15.7 3.7
18:55 1012 29.88 842 24.86 -7 19.4 49 -16.1 3.1
19:00 1012 29.88 842 24.86 -6.9 19.5 48 -16.1 3.1
19:05 1012 29.88 842 24.86 -7 19.4 48 -16.2 2.9
19:10 1012 29.88 842 24.86 -7.3 18.9 50 -16.1 3.1
19:15 1012 29.88 842 24.86 -7.5 18.5 49 -16.3 2.6
19:20 1012 29.88 842 24.86 -7.5 18.5 50 -16.2 2.8
19:25 1012 29.88 842 24.86 -7.8 17.9 48 -16.9 1.5
19:30 1012 29.88 842 24.86 -7.9 17.8 51 -16.4 2.4
19:35 1012 29.88 842 24.86 -7.8 17.9 49 -16.7 1.9
19:40 1012 29.88 842 24.86 -7.4 18.6 49 -16.4 2.5
19:45 1012 29.88 841 24.83 -7.6 18.3 50 -16.2 2.8
19:50 1012 29.88 841 24.83 -8 17.7 53 -15.9 3.4
19:55 1012 29.88 841 24.83 -7.9 17.8 51 -16.5 2.4
20:00 1012 29.88 841 24.83 -7.9 17.8 51 -16.5 2.4
20:05 1012 29.88 841 24.83 -8 17.7 52 -16.3 2.7
20:10 1012 29.88 841 24.83 -8 17.7 51 -16.3 2.6
20:15 1012 29.88 841 24.83 -7.9 17.7 51 -16.4 2.4
20:20 1012 29.88 841 24.83 -7.8 17.9 52 -16.1 3.1
20:25 1012 29.88 841 24.83 -8.1 17.5 52 -16.2 2.9
20:30 1012 29.88 841 24.83 -8.1 17.3 54 -15.9 3.4
20:35 1012 29.88 841 24.83 -8.3 17.1 52 -16.5 2.3
20:40 1012 29.88 841 24.83 -8.3 17 53 -16.3 2.6
20:45 1012 29.88 841 24.83 -8.4 16.9 52 -16.7 2
20:50 1012 29.88 841 24.83 -8.5 16.7 52 -16.7 1.9
20:55 1012 29.88 841 24.83 -8.5 16.7 56 -15.7 3.7
21:00 1012 29.88 841 24.83 -8.6 16.6 56 -15.9 3.3
21:05 1012 29.88 841 24.83 -8.6 16.5 56 -15.8 3.6
21:10 1012 29.88 841 24.83 -8.6 16.6 54 -16.2 2.9
21:15 1012 29.88 841 24.83 -8.6 16.5 55 -16.1 3.1
21:20 1012 29.88 841 24.83 -8.7 16.4 56 -16 3.2
21:25 1012 29.88 841 24.83 -8.9 16 55 -16.3 2.7
21:30 1012 29.88 841 24.83 -9 15.9 52 -17.1 1.2
21:35 1012 29.88 841 24.83 -8.9 16 50 -17.6 0.4
21:40 1012 29.88 841 24.83 -8.6 16.4 49 -17.6 0.3
21:45 1011 29.85 841 24.83 -8.5 16.6 48 -17.8 -0.1
21:50 1011 29.85 841 24.83 -8.2 17.2 45 -18 -0.5
21:55 1011 29.85 841 24.83 -8 17.6 47 -17.4 0.7
22:00 1011 29.85 841 24.83 -8.3 17.1 48 -17.4 0.6
22:05 1011 29.85 841 24.83 -8.6 16.6 49 -17.4 0.7
22:10 1011 29.85 840 24.81 -8.7 16.3 48 -17.7 0.1
22:15 1011 29.85 840 24.81 -8.9 16 50 -17.6 0.4
22:20 1011 29.85 840 24.81 -9.2 15.5 51 -17.5 0.5
22:25 1011 29.85 840 24.81 -9.5 15 54 -17.2 1.1
22:30 1011 29.85 840 24.81 -9.8 14.4 53 -17.7 0.1
22:35 1011 29.85 840 24.81 -9.9 14.2 53 -17.7 0.1
22:40 1011 29.85 840 24.81 -10.1 13.9 54 -17.6 0.2
22:45 1011 29.85 840 24.81 -10.2 13.6 55 -17.6 0.4
22:50 1011 29.85 840 24.81 -10.3 13.4 55 -17.7 0.1
22:55 1011 29.85 840 24.81 -10.3 13.5 55 -17.7 0.2
23:00 1011 29.85 840 24.81 -10.3 13.6 54 -18 -0.4
23:05 1011 29.85 840 24.81 -10.1 13.9 54 -17.8 -0.1
23:10 1011 29.85 840 24.81 -10.1 13.8 57 -17.2 1.1
23:15 1011 29.85 840 24.81 -10.5 13.2 54 -18 -0.4
23:20 1011 29.85 840 24.81 -10.5 13.1 57 -17.5 0.5
23:25 1011 29.85 840 24.81 -10.5 13.2 52 -18.4 -1.2
23:30 1011 29.85 840 24.81 -8.9 16.1 47 -18.3 -1
23:35 1011 29.85 840 24.81 -8.4 16.8 44 -18.7 -1.7
23:40 1011 29.85 840 24.81 -8.2 17.2 47 -17.7 0.1
23:45 1011 29.85 840 24.81 -8.4 16.9 48 -17.6 0.4
23:50 1011 29.85 840 24.81 -8.3 17 47 -17.9 -0.1
23:55 1011 29.85 840 24.81 -8.2 17.2 47 -17.6 0.3
24:00 1011 29.85 840 24.81 -8.5 16.7 52 -16.8 1.8